sensor_id;sensor_type;location;lat;lon;timestamp;P1;durP1;ratioP1;P2;durP2;ratioP2
85887;SDS011;77438;40.406;21.768;2024-03-22T00:00:54;4.10;;;3.20;;
85887;SDS011;77438;40.406;21.768;2024-03-22T00:01:50;5.80;;;2.70;;
85887;SDS011;77438;40.406;21.768;2024-03-22T00:02:45;4.70;;;1.90;;
85887;SDS011;77438;40.406;21.768;2024-03-22T00:03:41;4.70;;;2.60;;
85887;SDS011;77438;40.406;21.768;2024-03-22T00:04:36;4.30;;;2.90;;
85887;SDS011;77438;40.406;21.768;2024-03-22T00:05:31;5.00;;;2.70;;
85887;SDS011;77438;40.406;21.768;2024-03-22T00:06:26;5.00;;;2.10;;
85887;SDS011;77438;40.406;21.768;2024-03-22T00:07:22;5.80;;;2.90;;
85887;SDS011;77438;40.406;21.768;2024-03-22T00:08:17;4.60;;;2.20;;
85887;SDS011;77438;40.406;21.768;2024-03-22T00:09:14;6.60;;;2.70;;
85887;SDS011;77438;40.406;21.768;2024-03-22T00:10:09;5.40;;;2.60;;
85887;SDS011;77438;40.406;21.768;2024-03-22T00:11:05;4.00;;;1.90;;
85887;SDS011;77438;40.406;21.768;2024-03-22T00:12:00;3.80;;;1.80;;
85887;SDS011;77438;40.406;21.768;2024-03-22T00:12:56;3.70;;;2.10;;
85887;SDS011;77438;40.406;21.768;2024-03-22T00:13:51;7.00;;;3.30;;
85887;SDS011;77438;40.406;21.768;2024-03-22T00:14:46;7.50;;;3.40;;
85887;SDS011;77438;40.406;21.768;2024-03-22T00:15:42;6.70;;;3.60;;
85887;SDS011;77438;40.406;21.768;2024-03-22T00:16:37;7.00;;;3.40;;
85887;SDS011;77438;40.406;21.768;2024-03-22T00:17:33;6.30;;;3.70;;
85887;SDS011;77438;40.406;21.768;2024-03-22T00:18:28;9.20;;;4.70;;
85887;SDS011;77438;40.406;21.768;2024-03-22T00:19:23;10.40;;;5.20;;
85887;SDS011;77438;40.406;21.768;2024-03-22T00:20:20;13.50;;;6.20;;
85887;SDS011;77438;40.406;21.768;2024-03-22T00:21:15;13.90;;;6.70;;
85887;SDS011;77438;40.406;21.768;2024-03-22T00:22:10;13.80;;;5.60;;
85887;SDS011;77438;40.406;21.768;2024-03-22T00:23:06;12.80;;;6.30;;
85887;SDS011;77438;40.406;21.768;2024-03-22T00:24:01;11.70;;;5.60;;
85887;SDS011;77438;40.406;21.768;2024-03-22T00:24:57;9.20;;;5.30;;
85887;SDS011;77438;40.406;21.768;2024-03-22T00:25:52;10.60;;;4.60;;
85887;SDS011;77438;40.406;21.768;2024-03-22T00:26:47;11.00;;;4.70;;
85887;SDS011;77438;40.406;21.768;2024-03-22T00:27:43;11.40;;;5.60;;
85887;SDS011;77438;40.406;21.768;2024-03-22T00:28:38;7.30;;;4.10;;
85887;SDS011;77438;40.406;21.768;2024-03-22T00:29:33;8.20;;;5.10;;
85887;SDS011;77438;40.406;21.768;2024-03-22T00:30:31;6.30;;;4.20;;
85887;SDS011;77438;40.406;21.768;2024-03-22T00:31:26;9.70;;;4.40;;
85887;SDS011;77438;40.406;21.768;2024-03-22T00:32:21;9.50;;;4.00;;
85887;SDS011;77438;40.406;21.768;2024-03-22T00:33:17;6.70;;;3.60;;
85887;SDS011;77438;40.406;21.768;2024-03-22T00:34:12;6.80;;;3.60;;
85887;SDS011;77438;40.406;21.768;2024-03-22T00:35:08;6.20;;;3.50;;
85887;SDS011;77438;40.406;21.768;2024-03-22T00:36:04;9.00;;;4.10;;
85887;SDS011;77438;40.406;21.768;2024-03-22T00:37:00;7.10;;;3.40;;
85887;SDS011;77438;40.406;21.768;2024-03-22T00:37:56;6.80;;;3.30;;
85887;SDS011;77438;40.406;21.768;2024-03-22T00:38:51;6.70;;;3.40;;
85887;SDS011;77438;40.406;21.768;2024-03-22T00:39:46;6.60;;;2.90;;
85887;SDS011;77438;40.406;21.768;2024-03-22T00:40:42;5.80;;;3.20;;
85887;SDS011;77438;40.406;21.768;2024-03-22T00:41:37;6.50;;;3.70;;
85887;SDS011;77438;40.406;21.768;2024-03-22T00:42:32;6.40;;;3.60;;
85887;SDS011;77438;40.406;21.768;2024-03-22T00:43:28;8.20;;;3.50;;
85887;SDS011;77438;40.406;21.768;2024-03-22T00:44:23;6.30;;;3.30;;
85887;SDS011;77438;40.406;21.768;2024-03-22T00:45:18;5.50;;;2.90;;
85887;SDS011;77438;40.406;21.768;2024-03-22T00:46:14;7.80;;;3.60;;
85887;SDS011;77438;40.406;21.768;2024-03-22T00:47:09;7.10;;;3.10;;
85887;SDS011;77438;40.406;21.768;2024-03-22T00:48:05;4.80;;;2.90;;
85887;SDS011;77438;40.406;21.768;2024-03-22T00:49:00;9.50;;;3.90;;
85887;SDS011;77438;40.406;21.768;2024-03-22T00:49:56;7.50;;;3.50;;
85887;SDS011;77438;40.406;21.768;2024-03-22T00:50:51;5.60;;;3.10;;
85887;SDS011;77438;40.406;21.768;2024-03-22T00:51:47;7.80;;;3.10;;
85887;SDS011;77438;40.406;21.768;2024-03-22T00:52:42;4.90;;;3.00;;
85887;SDS011;77438;40.406;21.768;2024-03-22T00:53:37;5.30;;;3.10;;
85887;SDS011;77438;40.406;21.768;2024-03-22T00:54:32;4.80;;;3.40;;
85887;SDS011;77438;40.406;21.768;2024-03-22T00:55:28;8.40;;;3.10;;
85887;SDS011;77438;40.406;21.768;2024-03-22T00:56:23;4.90;;;3.00;;
85887;SDS011;77438;40.406;21.768;2024-03-22T00:57:18;4.00;;;2.80;;
85887;SDS011;77438;40.406;21.768;2024-03-22T00:58:14;6.00;;;3.30;;
85887;SDS011;77438;40.406;21.768;2024-03-22T00:59:09;5.10;;;2.60;;
85887;SDS011;77438;40.406;21.768;2024-03-22T01:00:05;3.80;;;2.20;;
85887;SDS011;77438;40.406;21.768;2024-03-22T01:01:01;6.10;;;2.70;;
85887;SDS011;77438;40.406;21.768;2024-03-22T01:01:57;4.30;;;2.70;;
85887;SDS011;77438;40.406;21.768;2024-03-22T01:02:52;4.50;;;2.40;;
85887;SDS011;77438;40.406;21.768;2024-03-22T01:03:47;4.00;;;2.30;;
85887;SDS011;77438;40.406;21.768;2024-03-22T01:04:43;7.10;;;3.20;;
85887;SDS011;77438;40.406;21.768;2024-03-22T01:05:38;6.10;;;3.00;;
85887;SDS011;77438;40.406;21.768;2024-03-22T01:06:34;5.80;;;2.50;;
85887;SDS011;77438;40.406;21.768;2024-03-22T01:07:29;9.00;;;2.90;;
85887;SDS011;77438;40.406;21.768;2024-03-22T01:08:24;5.50;;;3.10;;
85887;SDS011;77438;40.406;21.768;2024-03-22T01:09:20;4.90;;;3.10;;
85887;SDS011;77438;40.406;21.768;2024-03-22T01:10:15;3.70;;;2.50;;
85887;SDS011;77438;40.406;21.768;2024-03-22T01:11:11;4.10;;;2.30;;
85887;SDS011;77438;40.406;21.768;2024-03-22T01:12:06;6.00;;;2.90;;
85887;SDS011;77438;40.406;21.768;2024-03-22T01:13:02;4.30;;;2.40;;
85887;SDS011;77438;40.406;21.768;2024-03-22T01:13:57;7.90;;;3.70;;
85887;SDS011;77438;40.406;21.768;2024-03-22T01:14:53;6.20;;;3.10;;
85887;SDS011;77438;40.406;21.768;2024-03-22T01:15:49;6.70;;;4.10;;
85887;SDS011;77438;40.406;21.768;2024-03-22T01:16:44;4.90;;;3.00;;
85887;SDS011;77438;40.406;21.768;2024-03-22T01:17:39;4.70;;;2.30;;
85887;SDS011;77438;40.406;21.768;2024-03-22T01:18:35;6.30;;;3.00;;
85887;SDS011;77438;40.406;21.768;2024-03-22T01:19:30;8.70;;;3.40;;
85887;SDS011;77438;40.406;21.768;2024-03-22T01:20:26;4.60;;;2.90;;
85887;SDS011;77438;40.406;21.768;2024-03-22T01:21:21;6.50;;;4.00;;
85887;SDS011;77438;40.406;21.768;2024-03-22T01:22:17;7.60;;;3.30;;
85887;SDS011;77438;40.406;21.768;2024-03-22T01:23:12;7.20;;;3.30;;
85887;SDS011;77438;40.406;21.768;2024-03-22T01:24:08;5.20;;;2.90;;
85887;SDS011;77438;40.406;21.768;2024-03-22T01:25:03;6.30;;;2.90;;
85887;SDS011;77438;40.406;21.768;2024-03-22T01:26:00;5.80;;;2.80;;
85887;SDS011;77438;40.406;21.768;2024-03-22T01:26:55;7.80;;;2.50;;
85887;SDS011;77438;40.406;21.768;2024-03-22T01:27:50;7.70;;;2.90;;
85887;SDS011;77438;40.406;21.768;2024-03-22T01:28:46;6.30;;;3.20;;
85887;SDS011;77438;40.406;21.768;2024-03-22T01:29:41;8.10;;;3.80;;
85887;SDS011;77438;40.406;21.768;2024-03-22T01:30:36;8.80;;;3.60;;
85887;SDS011;77438;40.406;21.768;2024-03-22T01:31:32;7.60;;;3.60;;
85887;SDS011;77438;40.406;21.768;2024-03-22T01:32:27;9.60;;;3.40;;
85887;SDS011;77438;40.406;21.768;2024-03-22T01:33:22;8.00;;;4.20;;
85887;SDS011;77438;40.406;21.768;2024-03-22T01:34:17;9.90;;;3.80;;
85887;SDS011;77438;40.406;21.768;2024-03-22T01:35:13;6.20;;;3.40;;
85887;SDS011;77438;40.406;21.768;2024-03-22T01:36:08;8.40;;;3.40;;
85887;SDS011;77438;40.406;21.768;2024-03-22T01:37:04;6.80;;;3.20;;
85887;SDS011;77438;40.406;21.768;2024-03-22T01:37:59;5.90;;;4.10;;
85887;SDS011;77438;40.406;21.768;2024-03-22T01:38:54;5.80;;;3.00;;
85887;SDS011;77438;40.406;21.768;2024-03-22T01:39:50;6.80;;;3.60;;
85887;SDS011;77438;40.406;21.768;2024-03-22T01:40:45;8.40;;;3.30;;
85887;SDS011;77438;40.406;21.768;2024-03-22T01:41:40;9.10;;;3.90;;
85887;SDS011;77438;40.406;21.768;2024-03-22T01:42:36;5.70;;;2.90;;
85887;SDS011;77438;40.406;21.768;2024-03-22T01:43:32;5.80;;;2.90;;
85887;SDS011;77438;40.406;21.768;2024-03-22T01:44:28;7.20;;;3.20;;
85887;SDS011;77438;40.406;21.768;2024-03-22T01:46:18;5.10;;;2.40;;
85887;SDS011;77438;40.406;21.768;2024-03-22T01:47:13;5.40;;;2.00;;
85887;SDS011;77438;40.406;21.768;2024-03-22T01:48:08;4.10;;;2.40;;
85887;SDS011;77438;40.406;21.768;2024-03-22T01:49:04;5.60;;;2.70;;
85887;SDS011;77438;40.406;21.768;2024-03-22T01:50:01;6.80;;;2.80;;
85887;SDS011;77438;40.406;21.768;2024-03-22T01:50:57;8.70;;;3.40;;
85887;SDS011;77438;40.406;21.768;2024-03-22T01:51:52;9.00;;;3.50;;
85887;SDS011;77438;40.406;21.768;2024-03-22T01:52:48;8.00;;;3.30;;
85887;SDS011;77438;40.406;21.768;2024-03-22T01:53:43;6.10;;;3.30;;
85887;SDS011;77438;40.406;21.768;2024-03-22T01:54:39;7.80;;;3.20;;
85887;SDS011;77438;40.406;21.768;2024-03-22T01:55:35;5.10;;;3.80;;
85887;SDS011;77438;40.406;21.768;2024-03-22T01:56:30;7.70;;;3.20;;
85887;SDS011;77438;40.406;21.768;2024-03-22T01:57:26;6.30;;;3.00;;
85887;SDS011;77438;40.406;21.768;2024-03-22T01:58:22;6.90;;;3.30;;
85887;SDS011;77438;40.406;21.768;2024-03-22T01:59:17;9.70;;;3.70;;
85887;SDS011;77438;40.406;21.768;2024-03-22T02:00:14;8.00;;;3.50;;
85887;SDS011;77438;40.406;21.768;2024-03-22T02:01:10;8.50;;;3.40;;
85887;SDS011;77438;40.406;21.768;2024-03-22T02:02:05;6.60;;;2.90;;
85887;SDS011;77438;40.406;21.768;2024-03-22T02:03:00;5.50;;;3.30;;
85887;SDS011;77438;40.406;21.768;2024-03-22T02:03:56;6.60;;;3.60;;
85887;SDS011;77438;40.406;21.768;2024-03-22T02:04:52;7.30;;;3.60;;
85887;SDS011;77438;40.406;21.768;2024-03-22T02:05:47;6.90;;;3.00;;
85887;SDS011;77438;40.406;21.768;2024-03-22T02:06:42;10.00;;;4.00;;
85887;SDS011;77438;40.406;21.768;2024-03-22T02:07:38;7.40;;;3.90;;
85887;SDS011;77438;40.406;21.768;2024-03-22T02:08:33;7.60;;;3.70;;
85887;SDS011;77438;40.406;21.768;2024-03-22T02:09:28;6.30;;;3.20;;
85887;SDS011;77438;40.406;21.768;2024-03-22T02:10:24;7.10;;;3.80;;
85887;SDS011;77438;40.406;21.768;2024-03-22T02:11:19;9.00;;;3.70;;
85887;SDS011;77438;40.406;21.768;2024-03-22T02:12:15;10.00;;;3.40;;
85887;SDS011;77438;40.406;21.768;2024-03-22T02:13:10;7.80;;;3.80;;
85887;SDS011;77438;40.406;21.768;2024-03-22T02:14:06;7.90;;;3.20;;
85887;SDS011;77438;40.406;21.768;2024-03-22T02:15:01;8.00;;;3.60;;
85887;SDS011;77438;40.406;21.768;2024-03-22T02:15:57;7.00;;;3.60;;
85887;SDS011;77438;40.406;21.768;2024-03-22T02:16:55;5.60;;;3.20;;
85887;SDS011;77438;40.406;21.768;2024-03-22T02:17:51;6.40;;;3.20;;
85887;SDS011;77438;40.406;21.768;2024-03-22T02:18:46;6.60;;;3.90;;
85887;SDS011;77438;40.406;21.768;2024-03-22T02:19:42;7.00;;;3.10;;
85887;SDS011;77438;40.406;21.768;2024-03-22T02:20:37;12.20;;;3.60;;
85887;SDS011;77438;40.406;21.768;2024-03-22T02:21:32;5.60;;;2.90;;
85887;SDS011;77438;40.406;21.768;2024-03-22T02:22:28;6.40;;;3.50;;
85887;SDS011;77438;40.406;21.768;2024-03-22T02:23:26;6.20;;;3.30;;
85887;SDS011;77438;40.406;21.768;2024-03-22T02:24:24;7.50;;;3.20;;
85887;SDS011;77438;40.406;21.768;2024-03-22T02:25:20;11.30;;;3.10;;
85887;SDS011;77438;40.406;21.768;2024-03-22T02:26:15;5.90;;;3.60;;
85887;SDS011;77438;40.406;21.768;2024-03-22T02:27:10;6.10;;;3.20;;
85887;SDS011;77438;40.406;21.768;2024-03-22T02:28:06;6.20;;;3.00;;
85887;SDS011;77438;40.406;21.768;2024-03-22T02:29:01;7.00;;;3.40;;
85887;SDS011;77438;40.406;21.768;2024-03-22T02:29:57;4.10;;;2.70;;
85887;SDS011;77438;40.406;21.768;2024-03-22T02:30:52;7.60;;;2.90;;
85887;SDS011;77438;40.406;21.768;2024-03-22T02:31:47;7.20;;;3.20;;
85887;SDS011;77438;40.406;21.768;2024-03-22T02:32:43;5.20;;;2.70;;
85887;SDS011;77438;40.406;21.768;2024-03-22T02:33:38;7.90;;;2.80;;
85887;SDS011;77438;40.406;21.768;2024-03-22T02:34:33;6.80;;;3.30;;
85887;SDS011;77438;40.406;21.768;2024-03-22T02:35:29;4.30;;;2.40;;
85887;SDS011;77438;40.406;21.768;2024-03-22T02:36:24;5.50;;;2.80;;
85887;SDS011;77438;40.406;21.768;2024-03-22T02:37:20;6.00;;;3.20;;
85887;SDS011;77438;40.406;21.768;2024-03-22T02:38:15;9.30;;;3.10;;
85887;SDS011;77438;40.406;21.768;2024-03-22T02:39:11;7.00;;;3.00;;
85887;SDS011;77438;40.406;21.768;2024-03-22T02:40:07;6.70;;;2.70;;
85887;SDS011;77438;40.406;21.768;2024-03-22T02:41:04;4.50;;;2.30;;
85887;SDS011;77438;40.406;21.768;2024-03-22T02:42:00;5.30;;;2.70;;
85887;SDS011;77438;40.406;21.768;2024-03-22T02:42:55;6.30;;;2.40;;
85887;SDS011;77438;40.406;21.768;2024-03-22T02:43:50;6.60;;;2.70;;
85887;SDS011;77438;40.406;21.768;2024-03-22T02:44:46;6.00;;;2.70;;
85887;SDS011;77438;40.406;21.768;2024-03-22T02:45:41;6.30;;;2.90;;
85887;SDS011;77438;40.406;21.768;2024-03-22T02:46:36;5.30;;;3.00;;
85887;SDS011;77438;40.406;21.768;2024-03-22T02:47:32;5.10;;;2.80;;
85887;SDS011;77438;40.406;21.768;2024-03-22T02:48:27;5.80;;;2.90;;
85887;SDS011;77438;40.406;21.768;2024-03-22T02:49:22;3.60;;;2.00;;
85887;SDS011;77438;40.406;21.768;2024-03-22T02:50:18;5.00;;;2.60;;
85887;SDS011;77438;40.406;21.768;2024-03-22T02:51:13;3.30;;;2.00;;
85887;SDS011;77438;40.406;21.768;2024-03-22T02:52:08;4.30;;;2.20;;
85887;SDS011;77438;40.406;21.768;2024-03-22T02:53:04;3.20;;;1.80;;
85887;SDS011;77438;40.406;21.768;2024-03-22T02:54:00;4.20;;;2.10;;
85887;SDS011;77438;40.406;21.768;2024-03-22T02:54:56;4.50;;;2.40;;
85887;SDS011;77438;40.406;21.768;2024-03-22T02:55:51;4.50;;;2.50;;
85887;SDS011;77438;40.406;21.768;2024-03-22T02:56:46;4.50;;;2.00;;
85887;SDS011;77438;40.406;21.768;2024-03-22T02:57:42;4.30;;;2.10;;
85887;SDS011;77438;40.406;21.768;2024-03-22T02:58:37;5.10;;;2.50;;
85887;SDS011;77438;40.406;21.768;2024-03-22T02:59:33;4.90;;;2.70;;
85887;SDS011;77438;40.406;21.768;2024-03-22T03:00:28;5.00;;;3.00;;
85887;SDS011;77438;40.406;21.768;2024-03-22T03:01:23;5.50;;;2.90;;
85887;SDS011;77438;40.406;21.768;2024-03-22T03:02:19;3.50;;;2.20;;
85887;SDS011;77438;40.406;21.768;2024-03-22T03:03:14;5.00;;;2.90;;
85887;SDS011;77438;40.406;21.768;2024-03-22T03:04:09;4.10;;;2.60;;
85887;SDS011;77438;40.406;21.768;2024-03-22T03:05:05;4.30;;;2.20;;
85887;SDS011;77438;40.406;21.768;2024-03-22T03:06:01;3.70;;;2.10;;
85887;SDS011;77438;40.406;21.768;2024-03-22T03:06:57;5.40;;;2.60;;
85887;SDS011;77438;40.406;21.768;2024-03-22T03:07:52;5.60;;;2.90;;
85887;SDS011;77438;40.406;21.768;2024-03-22T03:08:48;6.20;;;3.60;;
85887;SDS011;77438;40.406;21.768;2024-03-22T03:09:43;7.10;;;3.70;;
85887;SDS011;77438;40.406;21.768;2024-03-22T03:10:38;5.70;;;3.20;;
85887;SDS011;77438;40.406;21.768;2024-03-22T03:11:33;6.60;;;3.80;;
85887;SDS011;77438;40.406;21.768;2024-03-22T03:12:29;4.20;;;2.50;;
85887;SDS011;77438;40.406;21.768;2024-03-22T03:13:24;5.90;;;3.00;;
85887;SDS011;77438;40.406;21.768;2024-03-22T03:14:20;6.40;;;3.00;;
85887;SDS011;77438;40.406;21.768;2024-03-22T03:15:15;6.10;;;3.10;;
85887;SDS011;77438;40.406;21.768;2024-03-22T03:16:10;5.80;;;3.20;;
85887;SDS011;77438;40.406;21.768;2024-03-22T03:17:06;4.70;;;2.90;;
85887;SDS011;77438;40.406;21.768;2024-03-22T03:18:01;3.60;;;2.20;;
85887;SDS011;77438;40.406;21.768;2024-03-22T03:18:57;6.50;;;2.80;;
85887;SDS011;77438;40.406;21.768;2024-03-22T03:19:53;3.80;;;2.10;;
85887;SDS011;77438;40.406;21.768;2024-03-22T03:20:48;3.90;;;2.30;;
85887;SDS011;77438;40.406;21.768;2024-03-22T03:21:43;4.50;;;2.30;;
85887;SDS011;77438;40.406;21.768;2024-03-22T03:22:39;5.90;;;2.10;;
85887;SDS011;77438;40.406;21.768;2024-03-22T03:23:34;4.00;;;2.40;;
85887;SDS011;77438;40.406;21.768;2024-03-22T03:24:30;4.50;;;2.70;;
85887;SDS011;77438;40.406;21.768;2024-03-22T03:25:25;5.00;;;2.40;;
85887;SDS011;77438;40.406;21.768;2024-03-22T03:26:20;4.50;;;2.40;;
85887;SDS011;77438;40.406;21.768;2024-03-22T03:27:16;4.60;;;2.10;;
85887;SDS011;77438;40.406;21.768;2024-03-22T03:28:11;5.50;;;2.40;;
85887;SDS011;77438;40.406;21.768;2024-03-22T03:29:07;4.40;;;2.50;;
85887;SDS011;77438;40.406;21.768;2024-03-22T03:30:03;5.20;;;2.50;;
85887;SDS011;77438;40.406;21.768;2024-03-22T03:30:59;4.10;;;2.30;;
85887;SDS011;77438;40.406;21.768;2024-03-22T03:31:55;4.70;;;2.40;;
85887;SDS011;77438;40.406;21.768;2024-03-22T03:32:50;6.60;;;3.10;;
85887;SDS011;77438;40.406;21.768;2024-03-22T03:33:45;5.30;;;3.10;;
85887;SDS011;77438;40.406;21.768;2024-03-22T03:34:40;6.10;;;3.10;;
85887;SDS011;77438;40.406;21.768;2024-03-22T03:35:36;6.60;;;3.60;;
85887;SDS011;77438;40.406;21.768;2024-03-22T03:36:31;7.60;;;3.20;;
85887;SDS011;77438;40.406;21.768;2024-03-22T03:37:26;9.10;;;2.40;;
85887;SDS011;77438;40.406;21.768;2024-03-22T03:38:22;5.70;;;3.00;;
85887;SDS011;77438;40.406;21.768;2024-03-22T03:39:17;5.80;;;3.30;;
85887;SDS011;77438;40.406;21.768;2024-03-22T03:40:13;7.20;;;4.10;;
85887;SDS011;77438;40.406;21.768;2024-03-22T03:41:08;4.70;;;3.40;;
85887;SDS011;77438;40.406;21.768;2024-03-22T03:42:04;9.70;;;3.70;;
85887;SDS011;77438;40.406;21.768;2024-03-22T03:43:00;6.90;;;3.50;;
85887;SDS011;77438;40.406;21.768;2024-03-22T03:43:55;5.70;;;3.70;;
85887;SDS011;77438;40.406;21.768;2024-03-22T03:44:50;9.80;;;5.00;;
85887;SDS011;77438;40.406;21.768;2024-03-22T03:45:45;7.40;;;4.60;;
85887;SDS011;77438;40.406;21.768;2024-03-22T03:46:41;12.20;;;4.60;;
85887;SDS011;77438;40.406;21.768;2024-03-22T03:47:36;9.20;;;3.60;;
85887;SDS011;77438;40.406;21.768;2024-03-22T03:48:31;7.90;;;4.40;;
85887;SDS011;77438;40.406;21.768;2024-03-22T03:49:27;7.60;;;3.90;;
85887;SDS011;77438;40.406;21.768;2024-03-22T03:50:22;8.80;;;4.60;;
85887;SDS011;77438;40.406;21.768;2024-03-22T03:51:17;7.50;;;4.20;;
85887;SDS011;77438;40.406;21.768;2024-03-22T03:52:13;9.90;;;4.40;;
85887;SDS011;77438;40.406;21.768;2024-03-22T03:53:08;8.40;;;4.60;;
85887;SDS011;77438;40.406;21.768;2024-03-22T03:54:03;9.70;;;4.80;;
85887;SDS011;77438;40.406;21.768;2024-03-22T03:54:59;10.60;;;4.80;;
85887;SDS011;77438;40.406;21.768;2024-03-22T03:55:54;8.30;;;4.50;;
85887;SDS011;77438;40.406;21.768;2024-03-22T03:56:49;11.10;;;4.20;;
85887;SDS011;77438;40.406;21.768;2024-03-22T03:57:45;9.20;;;5.30;;
85887;SDS011;77438;40.406;21.768;2024-03-22T03:58:40;7.70;;;4.50;;
85887;SDS011;77438;40.406;21.768;2024-03-22T03:59:35;8.40;;;4.30;;
85887;SDS011;77438;40.406;21.768;2024-03-22T04:00:31;7.10;;;3.50;;
85887;SDS011;77438;40.406;21.768;2024-03-22T04:01:26;5.70;;;3.60;;
85887;SDS011;77438;40.406;21.768;2024-03-22T04:02:21;6.80;;;3.80;;
85887;SDS011;77438;40.406;21.768;2024-03-22T04:03:17;6.80;;;3.40;;
85887;SDS011;77438;40.406;21.768;2024-03-22T04:04:12;6.10;;;3.20;;
85887;SDS011;77438;40.406;21.768;2024-03-22T04:05:08;6.80;;;3.00;;
85887;SDS011;77438;40.406;21.768;2024-03-22T04:06:03;5.70;;;3.30;;
85887;SDS011;77438;40.406;21.768;2024-03-22T04:06:58;7.30;;;3.30;;
85887;SDS011;77438;40.406;21.768;2024-03-22T04:07:54;7.20;;;4.20;;
85887;SDS011;77438;40.406;21.768;2024-03-22T04:08:49;7.10;;;3.70;;
85887;SDS011;77438;40.406;21.768;2024-03-22T04:09:44;5.40;;;2.80;;
85887;SDS011;77438;40.406;21.768;2024-03-22T04:10:39;6.80;;;3.30;;
85887;SDS011;77438;40.406;21.768;2024-03-22T04:11:44;6.90;;;3.70;;
85887;SDS011;77438;40.406;21.768;2024-03-22T04:12:39;7.40;;;3.70;;
85887;SDS011;77438;40.406;21.768;2024-03-22T04:13:34;6.40;;;3.00;;
85887;SDS011;77438;40.406;21.768;2024-03-22T04:14:29;6.50;;;3.50;;
85887;SDS011;77438;40.406;21.768;2024-03-22T04:15:25;9.30;;;3.70;;
85887;SDS011;77438;40.406;21.768;2024-03-22T04:16:20;5.50;;;3.10;;
85887;SDS011;77438;40.406;21.768;2024-03-22T04:17:15;7.30;;;3.40;;
85887;SDS011;77438;40.406;21.768;2024-03-22T04:18:11;7.50;;;3.30;;
85887;SDS011;77438;40.406;21.768;2024-03-22T04:19:06;9.60;;;3.60;;
85887;SDS011;77438;40.406;21.768;2024-03-22T04:20:01;7.30;;;3.60;;
85887;SDS011;77438;40.406;21.768;2024-03-22T04:20:58;7.40;;;4.00;;
85887;SDS011;77438;40.406;21.768;2024-03-22T04:21:54;9.30;;;3.40;;
85887;SDS011;77438;40.406;21.768;2024-03-22T04:22:49;5.70;;;2.60;;
85887;SDS011;77438;40.406;21.768;2024-03-22T04:23:45;4.80;;;2.40;;
85887;SDS011;77438;40.406;21.768;2024-03-22T04:24:40;4.80;;;3.00;;
85887;SDS011;77438;40.406;21.768;2024-03-22T04:25:35;5.60;;;2.70;;
85887;SDS011;77438;40.406;21.768;2024-03-22T04:26:31;6.60;;;3.30;;
85887;SDS011;77438;40.406;21.768;2024-03-22T04:27:26;5.60;;;2.40;;
85887;SDS011;77438;40.406;21.768;2024-03-22T04:28:22;5.30;;;2.60;;
85887;SDS011;77438;40.406;21.768;2024-03-22T04:29:17;8.50;;;3.50;;
85887;SDS011;77438;40.406;21.768;2024-03-22T04:30:13;3.80;;;2.50;;
85887;SDS011;77438;40.406;21.768;2024-03-22T04:31:09;7.30;;;3.10;;
85887;SDS011;77438;40.406;21.768;2024-03-22T04:32:05;4.30;;;2.30;;
85887;SDS011;77438;40.406;21.768;2024-03-22T04:33:01;5.10;;;2.90;;
85887;SDS011;77438;40.406;21.768;2024-03-22T04:33:56;4.70;;;2.50;;
85887;SDS011;77438;40.406;21.768;2024-03-22T04:34:52;7.10;;;2.30;;
85887;SDS011;77438;40.406;21.768;2024-03-22T04:35:47;5.60;;;2.20;;
85887;SDS011;77438;40.406;21.768;2024-03-22T04:36:42;5.10;;;3.10;;
85887;SDS011;77438;40.406;21.768;2024-03-22T04:37:37;5.10;;;2.60;;
85887;SDS011;77438;40.406;21.768;2024-03-22T04:38:33;5.40;;;2.50;;
85887;SDS011;77438;40.406;21.768;2024-03-22T04:39:28;4.60;;;2.40;;
85887;SDS011;77438;40.406;21.768;2024-03-22T04:40:23;4.00;;;2.40;;
85887;SDS011;77438;40.406;21.768;2024-03-22T04:41:19;5.20;;;2.00;;
85887;SDS011;77438;40.406;21.768;2024-03-22T04:42:14;5.00;;;1.90;;
85887;SDS011;77438;40.406;21.768;2024-03-22T04:43:09;3.50;;;1.80;;
85887;SDS011;77438;40.406;21.768;2024-03-22T04:44:05;3.60;;;2.00;;
85887;SDS011;77438;40.406;21.768;2024-03-22T04:45:00;5.30;;;2.00;;
85887;SDS011;77438;40.406;21.768;2024-03-22T04:45:56;3.50;;;2.40;;
85887;SDS011;77438;40.406;21.768;2024-03-22T04:46:52;4.90;;;2.40;;
85887;SDS011;77438;40.406;21.768;2024-03-22T04:47:48;4.80;;;2.10;;
85887;SDS011;77438;40.406;21.768;2024-03-22T04:48:43;4.30;;;2.00;;
85887;SDS011;77438;40.406;21.768;2024-03-22T04:49:38;4.00;;;2.00;;
85887;SDS011;77438;40.406;21.768;2024-03-22T04:50:34;3.60;;;2.10;;
85887;SDS011;77438;40.406;21.768;2024-03-22T04:51:29;4.10;;;2.00;;
85887;SDS011;77438;40.406;21.768;2024-03-22T04:52:25;3.90;;;2.10;;
85887;SDS011;77438;40.406;21.768;2024-03-22T04:53:20;4.50;;;2.10;;
85887;SDS011;77438;40.406;21.768;2024-03-22T04:54:15;4.30;;;1.90;;
85887;SDS011;77438;40.406;21.768;2024-03-22T04:55:11;3.70;;;2.50;;
85887;SDS011;77438;40.406;21.768;2024-03-22T04:56:06;5.70;;;3.00;;
85887;SDS011;77438;40.406;21.768;2024-03-22T04:57:02;6.20;;;3.30;;
85887;SDS011;77438;40.406;21.768;2024-03-22T04:57:58;8.90;;;4.60;;
85887;SDS011;77438;40.406;21.768;2024-03-22T04:58:53;8.40;;;4.70;;
85887;SDS011;77438;40.406;21.768;2024-03-22T04:59:49;9.10;;;5.10;;
85887;SDS011;77438;40.406;21.768;2024-03-22T05:00:44;6.50;;;4.30;;
85887;SDS011;77438;40.406;21.768;2024-03-22T05:01:40;7.30;;;3.30;;
85887;SDS011;77438;40.406;21.768;2024-03-22T05:02:36;8.60;;;3.20;;
85887;SDS011;77438;40.406;21.768;2024-03-22T05:03:32;13.30;;;4.70;;
85887;SDS011;77438;40.406;21.768;2024-03-22T05:04:27;6.20;;;3.10;;
85887;SDS011;77438;40.406;21.768;2024-03-22T05:05:22;14.10;;;3.50;;
85887;SDS011;77438;40.406;21.768;2024-03-22T05:06:17;6.30;;;3.30;;
85887;SDS011;77438;40.406;21.768;2024-03-22T05:07:13;6.70;;;2.90;;
85887;SDS011;77438;40.406;21.768;2024-03-22T05:08:08;8.00;;;2.90;;
85887;SDS011;77438;40.406;21.768;2024-03-22T05:09:03;9.50;;;3.90;;
85887;SDS011;77438;40.406;21.768;2024-03-22T05:09:59;7.90;;;4.60;;
85887;SDS011;77438;40.406;21.768;2024-03-22T05:10:54;8.10;;;4.90;;
85887;SDS011;77438;40.406;21.768;2024-03-22T05:11:50;8.10;;;3.50;;
85887;SDS011;77438;40.406;21.768;2024-03-22T05:12:45;9.00;;;4.10;;
85887;SDS011;77438;40.406;21.768;2024-03-22T05:13:41;7.40;;;4.10;;
85887;SDS011;77438;40.406;21.768;2024-03-22T05:14:37;12.10;;;4.80;;
85887;SDS011;77438;40.406;21.768;2024-03-22T05:15:32;11.20;;;4.40;;
85887;SDS011;77438;40.406;21.768;2024-03-22T05:16:29;8.30;;;4.30;;
85887;SDS011;77438;40.406;21.768;2024-03-22T05:17:24;12.30;;;4.60;;
85887;SDS011;77438;40.406;21.768;2024-03-22T05:18:19;11.80;;;4.80;;
85887;SDS011;77438;40.406;21.768;2024-03-22T05:19:15;9.50;;;4.80;;
85887;SDS011;77438;40.406;21.768;2024-03-22T05:20:11;8.20;;;4.80;;
85887;SDS011;77438;40.406;21.768;2024-03-22T05:21:06;9.00;;;5.00;;
85887;SDS011;77438;40.406;21.768;2024-03-22T05:22:01;11.90;;;5.30;;
85887;SDS011;77438;40.406;21.768;2024-03-22T05:22:57;9.20;;;5.60;;
85887;SDS011;77438;40.406;21.768;2024-03-22T05:23:54;12.00;;;4.60;;
85887;SDS011;77438;40.406;21.768;2024-03-22T05:25:43;8.50;;;4.30;;
85887;SDS011;77438;40.406;21.768;2024-03-22T05:26:38;13.10;;;5.50;;
85887;SDS011;77438;40.406;21.768;2024-03-22T05:27:41;13.10;;;5.90;;
85887;SDS011;77438;40.406;21.768;2024-03-22T05:28:37;9.50;;;4.70;;
85887;SDS011;77438;40.406;21.768;2024-03-22T05:29:33;9.80;;;5.20;;
85887;SDS011;77438;40.406;21.768;2024-03-22T05:30:30;8.70;;;5.40;;
85887;SDS011;77438;40.406;21.768;2024-03-22T05:31:26;11.60;;;5.30;;